createdAt,value
2018-07-21T00:01:55.907Z,12.73
2018-07-21T00:04:24.194Z,14.33
2018-07-21T00:06:52.467Z,9.17
2018-07-21T00:09:20.641Z,11.50
2018-07-21T00:11:48.944Z,10.43
2018-07-21T00:14:17.191Z,9.90
2018-07-21T00:16:45.416Z,10.90
2018-07-21T00:19:13.629Z,10.53
2018-07-21T00:21:41.864Z,10.27
2018-07-21T00:24:10.038Z,9.63
2018-07-21T00:26:43.500Z,9.37
2018-07-21T00:29:11.731Z,11.87
2018-07-21T00:31:39.921Z,11.50
2018-07-21T00:34:08.205Z,11.60
2018-07-21T00:36:36.382Z,9.80
2018-07-21T00:39:06.388Z,9.70
2018-07-21T00:41:35.411Z,9.83
2018-07-21T00:44:03.711Z,10.23
2018-07-21T00:46:31.869Z,10.60
2018-07-21T00:48:59.998Z,10.73
2018-07-21T00:51:28.192Z,9.70
2018-07-21T00:53:56.407Z,11.53
2018-07-21T00:56:24.579Z,11.10
2018-07-21T00:58:52.937Z,11.63
2018-07-21T01:01:21.098Z,12.87
2018-07-21T01:03:49.307Z,11.23
2018-07-21T01:06:17.537Z,10.37
2018-07-21T01:08:45.716Z,11.47
2018-07-21T01:11:13.951Z,10.93
2018-07-21T01:13:42.116Z,10.57
2018-07-21T01:16:10.373Z,9.97
2018-07-21T01:18:38.510Z,11.33
2018-07-21T01:21:06.812Z,10.30
2018-07-21T01:23:35.113Z,10.83
2018-07-21T01:26:03.407Z,9.97
2018-07-21T01:28:31.564Z,10.87
2018-07-21T01:30:59.778Z,11.00
2018-07-21T01:33:28.203Z,10.27
2018-07-21T01:35:56.377Z,10.63
2018-07-21T01:38:24.559Z,13.03
2018-07-21T01:40:52.727Z,12.73
2018-07-21T01:43:20.923Z,10.87
2018-07-21T01:45:49.083Z,10.60
2018-07-21T01:48:17.248Z,11.97
2018-07-21T01:50:45.456Z,12.87
2018-07-21T01:53:13.619Z,10.10
2018-07-21T01:55:41.795Z,11.70
2018-07-21T01:58:09.971Z,9.40
2018-07-21T02:00:38.092Z,10.77
2018-07-21T02:03:06.408Z,11.20
2018-07-21T02:05:34.554Z,12.23
2018-07-21T02:08:02.741Z,11.37
2018-07-21T02:10:30.952Z,11.27
2018-07-21T02:12:59.097Z,9.93
2018-07-21T02:15:27.282Z,9.87
2018-07-21T02:17:55.401Z,11.97
2018-07-21T02:20:23.654Z,15.67
2018-07-21T02:22:51.751Z,12.47
2018-07-21T02:25:19.898Z,12.60
2018-07-21T02:27:48.026Z,11.30
2018-07-21T02:30:16.219Z,11.83
2018-07-21T02:32:44.404Z,13.07
2018-07-21T02:35:12.624Z,14.17
2018-07-21T02:37:40.794Z,13.30
2018-07-21T02:40:08.967Z,16.00
2018-07-21T02:42:37.154Z,15.50
2018-07-21T02:45:05.422Z,16.60
2018-07-21T02:47:33.595Z,18.97
2018-07-21T02:50:01.759Z,18.97
2018-07-21T02:52:29.937Z,18.53
2018-07-21T02:54:58.100Z,19.80
2018-07-21T02:57:26.347Z,18.13
2018-07-21T02:59:54.483Z,17.60
2018-07-21T03:02:22.753Z,16.50
2018-07-21T03:04:50.918Z,15.87
2018-07-21T03:07:19.091Z,16.03
2018-07-21T03:09:47.283Z,14.50
2018-07-21T03:12:15.473Z,13.77
2018-07-21T03:14:43.741Z,14.20
2018-07-21T03:17:12.000Z,13.67
2018-07-21T03:19:40.261Z,16.20
2018-07-21T03:22:08.455Z,17.70
2018-07-21T03:24:36.619Z,18.17
2018-07-21T03:27:04.785Z,18.60
2018-07-21T03:29:32.963Z,20.60
2018-07-21T03:32:01.127Z,19.40
2018-07-21T03:34:29.301Z,20.13
2018-07-21T03:36:57.463Z,18.77
2018-07-21T03:39:25.840Z,17.57
2018-07-21T03:41:53.973Z,20.17
2018-07-21T03:44:22.498Z,18.23
2018-07-21T03:46:50.666Z,18.33
2018-07-21T03:49:18.950Z,16.87
2018-07-21T03:51:47.136Z,17.90
2018-07-21T03:54:15.288Z,16.73
2018-07-21T03:56:43.491Z,17.50
2018-07-21T03:59:11.658Z,18.17
2018-07-21T04:01:40.590Z,15.30
2018-07-21T04:04:08.833Z,15.07
2018-07-21T04:06:36.973Z,14.53
2018-07-21T04:09:06.653Z,13.70
2018-07-21T04:11:34.828Z,12.90
2018-07-21T04:14:02.951Z,13.40
2018-07-21T04:16:31.123Z,15.20
2018-07-21T04:18:59.191Z,13.83
2018-07-21T04:21:27.386Z,12.30
2018-07-21T04:23:55.555Z,14.90
2018-07-21T04:26:23.742Z,16.83
2018-07-21T04:28:51.860Z,16.17
2018-07-21T04:31:20.075Z,17.20
2018-07-21T04:33:48.236Z,15.00
2018-07-21T04:36:16.516Z,17.20
2018-07-21T04:38:44.704Z,16.83
2018-07-21T04:41:12.951Z,17.60
2018-07-21T04:43:41.151Z,16.17
2018-07-21T04:46:09.343Z,15.60
2018-07-21T04:48:37.595Z,15.63
2018-07-21T04:51:05.832Z,14.83
2018-07-21T04:53:34.000Z,13.83
2018-07-21T04:56:02.202Z,17.00
2018-07-21T04:58:30.406Z,14.13
2018-07-21T05:00:58.607Z,12.00
2018-07-21T05:03:26.935Z,11.60
2018-07-21T05:05:55.074Z,10.23
2018-07-21T05:08:23.352Z,10.03
2018-07-21T05:10:51.595Z,8.83
2018-07-21T05:13:19.815Z,12.83
2018-07-21T05:15:48.018Z,9.47
2018-07-21T05:18:16.191Z,9.43
2018-07-21T05:20:44.889Z,8.13
2018-07-21T05:23:13.043Z,8.80
2018-07-21T05:25:41.222Z,8.67
2018-07-21T05:28:09.444Z,10.87
2018-07-21T05:30:37.590Z,9.30
2018-07-21T05:33:05.896Z,8.23
2018-07-21T05:35:34.204Z,8.63
2018-07-21T05:38:02.395Z,8.03
2018-07-21T05:40:30.591Z,12.00
2018-07-21T05:42:58.791Z,9.27
2018-07-21T05:45:26.956Z,12.77
2018-07-21T05:47:55.140Z,9.10
2018-07-21T05:50:23.355Z,7.27
2018-07-21T05:52:51.611Z,7.97
2018-07-21T05:55:19.805Z,8.60
2018-07-21T05:57:47.986Z,9.70
2018-07-21T06:00:16.162Z,8.20
2018-07-21T06:02:44.481Z,7.83
2018-07-21T06:05:12.549Z,8.57
2018-07-21T06:07:40.688Z,9.17
2018-07-21T06:10:08.895Z,8.13
2018-07-21T06:12:37.062Z,8.87
2018-07-21T06:15:05.336Z,8.30
2018-07-21T06:17:33.544Z,8.27
2018-07-21T06:20:02.040Z,7.73
2018-07-21T06:22:30.776Z,8.63
2018-07-21T06:24:59.018Z,8.87
2018-07-21T06:27:27.180Z,10.80
2018-07-21T06:29:55.373Z,8.40
2018-07-21T06:32:23.555Z,10.73
2018-07-21T06:34:51.830Z,8.33
2018-07-21T06:37:20.003Z,9.87
2018-07-21T06:39:48.235Z,9.83
2018-07-21T06:42:16.437Z,11.17
2018-07-21T06:44:44.725Z,9.90
2018-07-21T06:47:12.878Z,9.13
2018-07-21T06:49:41.093Z,8.53
2018-07-21T06:52:09.410Z,10.53
2018-07-21T06:54:37.698Z,7.90
2018-07-21T06:57:05.848Z,9.20
2018-07-21T06:59:34.063Z,8.30
2018-07-21T07:02:02.283Z,9.13
2018-07-21T07:04:30.458Z,9.57
2018-07-21T07:06:58.665Z,8.97
2018-07-21T07:09:26.855Z,10.73
2018-07-21T07:11:55.269Z,8.00
2018-07-21T07:14:23.478Z,8.57
2018-07-21T07:16:51.686Z,8.87
2018-07-21T07:19:19.981Z,9.80
2018-07-21T07:21:49.110Z,7.90
2018-07-21T07:24:17.314Z,12.27
2018-07-21T07:26:45.584Z,8.50
2018-07-21T07:29:13.787Z,8.67
2018-07-21T07:31:42.099Z,8.37
2018-07-21T07:34:10.361Z,8.43
2018-07-21T07:36:38.551Z,10.50
2018-07-21T07:39:07.617Z,7.67
2018-07-21T07:41:36.002Z,8.47
2018-07-21T07:44:04.213Z,8.77
2018-07-21T07:46:32.437Z,8.67
2018-07-21T07:49:00.645Z,9.43
2018-07-21T07:51:28.883Z,9.87
2018-07-21T07:53:57.148Z,8.50
2018-07-21T07:56:25.451Z,8.97
2018-07-21T07:58:53.620Z,9.73
2018-07-21T08:01:21.896Z,8.50
2018-07-21T08:03:50.096Z,9.40
2018-07-21T08:06:18.483Z,10.80
2018-07-21T08:08:46.788Z,9.53
2018-07-21T08:11:15.002Z,12.20
2018-07-21T08:13:43.257Z,10.60
2018-07-21T08:16:11.497Z,10.63
2018-07-21T08:18:39.709Z,8.77
2018-07-21T08:21:07.926Z,10.20
2018-07-21T08:23:36.161Z,12.53
2018-07-21T08:26:04.485Z,11.63
2018-07-21T08:28:32.644Z,9.80
2018-07-21T08:31:00.859Z,10.10
2018-07-21T08:33:29.063Z,10.60
2018-07-21T08:35:57.932Z,12.93
2018-07-21T08:38:26.090Z,10.83
2018-07-21T08:40:54.426Z,14.60
2018-07-21T08:43:22.939Z,10.43
2018-07-21T08:45:51.301Z,10.17
2018-07-21T08:48:19.669Z,10.00
2018-07-21T08:50:47.863Z,12.77
2018-07-21T08:53:16.134Z,10.57
2018-07-21T08:55:44.438Z,9.63
2018-07-21T08:58:12.717Z,9.90
2018-07-21T09:00:40.939Z,10.43
2018-07-21T09:03:09.149Z,8.83
2018-07-21T09:05:37.431Z,10.03
2018-07-21T09:08:06.010Z,12.37
2018-07-21T09:10:34.150Z,10.20
2018-07-21T09:13:02.409Z,9.93
2018-07-21T09:15:30.825Z,11.53
2018-07-21T09:17:59.046Z,10.67
2018-07-21T09:20:27.292Z,11.33
2018-07-21T09:22:55.680Z,10.20
2018-07-21T09:25:23.891Z,10.87
2018-07-21T09:27:52.081Z,12.10
2018-07-21T09:30:20.304Z,10.97
2018-07-21T09:32:48.447Z,9.93
2018-07-21T09:35:16.827Z,9.30
2018-07-21T09:37:45.040Z,10.03
2018-07-21T09:40:13.306Z,10.37
2018-07-21T09:42:41.415Z,8.53
2018-07-21T09:45:09.608Z,15.50
2018-07-21T09:47:37.821Z,8.10
2018-07-21T09:50:06.900Z,8.67
2018-07-21T09:52:35.116Z,7.90
2018-07-21T09:55:03.296Z,6.87
2018-07-21T09:57:31.451Z,5.47
2018-07-21T09:59:59.761Z,5.10
2018-07-21T10:02:27.932Z,6.60
2018-07-21T10:04:56.617Z,5.40
2018-07-21T10:07:24.880Z,7.03
2018-07-21T10:09:53.032Z,5.90
2018-07-21T10:12:21.439Z,9.07
2018-07-21T10:14:49.690Z,5.57
2018-07-21T10:17:17.894Z,6.03
2018-07-21T10:19:46.131Z,6.37
2018-07-21T10:22:14.350Z,5.90
2018-07-21T10:24:47.946Z,8.97
2018-07-21T10:27:16.410Z,6.17
2018-07-21T10:29:44.700Z,7.30
2018-07-21T10:32:12.875Z,5.60
2018-07-21T10:34:41.076Z,10.03
2018-07-21T10:37:09.283Z,5.77
2018-07-21T10:39:37.474Z,6.67
2018-07-21T10:42:06.682Z,4.97
2018-07-21T10:44:34.953Z,6.37
2018-07-21T10:47:03.343Z,5.93
2018-07-21T10:49:31.555Z,5.17
2018-07-21T10:51:59.748Z,5.43
2018-07-21T10:54:27.959Z,5.80
2018-07-21T10:56:56.141Z,9.30
2018-07-21T10:59:24.359Z,19.83
2018-07-21T11:01:52.562Z,6.37
2018-07-21T11:04:20.771Z,7.43
2018-07-21T11:06:48.985Z,7.47
2018-07-21T11:09:17.171Z,6.67
2018-07-21T11:11:45.420Z,6.60
2018-07-21T11:14:13.616Z,6.10
2018-07-21T11:26:26.809Z,5.73
2018-07-21T11:28:55.021Z,5.67
2018-07-21T11:31:23.228Z,7.93
2018-07-21T11:33:51.454Z,7.27
2018-07-21T11:36:19.790Z,7.20
2018-07-21T11:38:47.972Z,8.20
2018-07-21T11:41:16.220Z,5.17
2018-07-21T11:43:44.400Z,6.80
2018-07-21T11:46:12.602Z,5.80
2018-07-21T11:48:40.807Z,6.27
2018-07-21T11:51:09.006Z,5.30
2018-07-21T11:53:37.185Z,5.17
2018-07-21T11:56:05.471Z,4.60
2018-07-21T11:58:33.676Z,15.90
2018-07-21T12:01:01.921Z,20.33
2018-07-21T12:03:30.142Z,21.03
2018-07-21T12:05:58.347Z,10.03
2018-07-21T12:08:26.599Z,7.03
2018-07-21T12:10:54.840Z,17.73
2018-07-21T12:13:23.343Z,5.40
2018-07-21T12:59:23.395Z,10.40
2018-07-21T13:01:51.648Z,6.53
2018-07-21T13:04:19.914Z,6.10
2018-07-21T13:06:48.235Z,17.00
2018-07-21T13:09:16.440Z,8.80
2018-07-21T13:11:44.756Z,16.10
2018-07-21T13:14:13.008Z,8.33
2018-07-21T13:16:41.254Z,9.00
2018-07-21T13:19:09.566Z,7.90
2018-07-21T13:21:37.752Z,8.27
2018-07-21T13:24:05.908Z,6.67
2018-07-21T13:26:34.200Z,7.47
2018-07-21T13:29:02.366Z,9.77
2018-07-21T13:31:30.628Z,36.30
2018-07-21T13:33:58.844Z,11.67
2018-07-21T13:36:27.028Z,7.27
2018-07-21T13:38:55.393Z,6.50
2018-07-21T13:41:23.689Z,7.83
2018-07-21T13:43:51.883Z,7.40
2018-07-21T13:46:20.175Z,6.37
2018-07-21T13:48:48.477Z,6.67
2018-07-21T13:51:16.759Z,6.13
2018-07-21T13:53:44.952Z,7.80
2018-07-21T13:56:13.317Z,9.00
2018-07-21T13:58:41.607Z,16.03
2018-07-21T14:01:10.090Z,6.83
2018-07-21T14:03:38.491Z,7.63
2018-07-21T14:06:06.993Z,7.53
2018-07-21T14:08:35.202Z,16.37
2018-07-21T14:11:03.386Z,8.90
2018-07-21T14:13:31.695Z,6.63
2018-07-21T14:16:00.017Z,12.47
2018-07-21T14:18:28.446Z,7.90
2018-07-21T14:20:56.668Z,8.53
2018-07-21T14:23:24.825Z,6.37
2018-07-21T14:25:53.063Z,5.60
2018-07-21T14:28:21.449Z,7.60
2018-07-21T14:30:49.602Z,13.37
2018-07-21T14:33:17.797Z,7.03
2018-07-21T14:35:46.056Z,7.43
2018-07-21T14:38:14.218Z,6.30
2018-07-21T14:40:42.389Z,6.83
2018-07-21T14:43:10.656Z,7.10
2018-07-21T14:45:38.944Z,5.50
2018-07-21T14:48:07.189Z,13.10
2018-07-21T14:50:35.393Z,19.33
2018-07-21T14:53:03.671Z,14.93
2018-07-21T14:55:31.892Z,11.97
2018-07-21T14:58:00.197Z,5.20
2018-07-21T15:00:28.460Z,24.13
2018-07-21T15:02:56.702Z,68.80
2018-07-21T15:05:24.975Z,119.67
2018-07-21T15:07:53.272Z,271.13
2018-07-21T15:10:21.601Z,158.77
2018-07-21T15:12:49.839Z,40.87
2018-07-21T15:15:18.014Z,46.17
2018-07-21T15:17:46.175Z,52.57
2018-07-21T15:20:14.327Z,40.20
2018-07-21T15:22:42.706Z,67.43
2018-07-21T15:25:11.396Z,8.23
2018-07-21T15:27:39.647Z,10.70
2018-07-21T15:30:08.031Z,11.33
2018-07-21T15:32:36.150Z,12.00
2018-07-21T15:35:04.345Z,9.13
2018-07-21T15:37:32.458Z,9.03
2018-07-21T15:40:00.661Z,7.87
2018-07-21T15:42:29.137Z,7.30
2018-07-21T15:44:57.253Z,7.50
2018-07-21T15:47:25.470Z,9.53
2018-07-21T15:49:53.648Z,6.90
2018-07-21T15:52:21.884Z,6.67
2018-07-21T15:54:50.039Z,7.50
2018-07-21T15:57:18.335Z,7.00
2018-07-21T15:59:46.475Z,7.10
2018-07-21T16:02:14.798Z,7.30
2018-07-21T16:04:42.908Z,6.77
2018-07-21T16:07:11.143Z,7.03
2018-07-21T16:09:39.327Z,6.80
2018-07-21T16:12:07.570Z,7.23
2018-07-21T16:14:35.756Z,7.93
2018-07-21T16:17:03.887Z,7.23
2018-07-21T16:19:32.226Z,8.53
2018-07-21T16:22:00.338Z,7.53
2018-07-21T16:24:28.626Z,7.83
2018-07-21T16:26:56.759Z,6.90
2018-07-21T16:29:24.908Z,6.60
2018-07-21T16:31:53.023Z,7.37
2018-07-21T16:34:21.268Z,7.33
2018-07-21T16:36:49.437Z,8.50
2018-07-21T16:39:17.605Z,12.63
2018-07-21T16:41:45.740Z,8.77
2018-07-21T16:44:13.936Z,8.90
2018-07-21T16:46:42.146Z,9.97
2018-07-21T16:49:10.417Z,10.53
2018-07-21T16:51:38.532Z,9.93
2018-07-21T16:54:07.623Z,10.20
2018-07-21T16:56:36.789Z,12.17
2018-07-21T16:59:06.035Z,10.67
2018-07-21T17:01:34.305Z,11.10
2018-07-21T17:04:02.581Z,13.10
2018-07-21T17:06:30.892Z,12.70
2018-07-21T17:08:59.097Z,13.40
2018-07-21T17:11:27.312Z,11.83
2018-07-21T17:13:55.430Z,11.23
2018-07-21T17:16:23.796Z,26.10
2018-07-21T17:18:51.967Z,11.53
2018-07-21T17:21:20.211Z,12.07
2018-07-21T17:23:48.440Z,13.60
2018-07-21T17:26:16.572Z,13.20
2018-07-21T17:28:44.758Z,12.77
2018-07-21T17:31:12.972Z,19.23
2018-07-21T17:33:41.142Z,12.80
2018-07-21T17:36:09.359Z,11.80
2018-07-21T17:38:37.547Z,12.40
2018-07-21T17:41:05.685Z,12.03
2018-07-21T17:43:33.912Z,12.27
2018-07-21T17:46:02.124Z,11.87
2018-07-21T17:48:30.543Z,11.03
2018-07-21T17:50:58.770Z,12.13
2018-07-21T17:53:26.912Z,13.57
2018-07-21T17:55:55.113Z,16.80
2018-07-21T17:58:23.256Z,11.77
2018-07-21T18:00:51.542Z,13.90
2018-07-21T18:03:20.035Z,12.00
2018-07-21T18:05:48.267Z,13.10
2018-07-21T18:08:16.524Z,12.43
2018-07-21T18:10:44.711Z,15.70
2018-07-21T18:13:12.970Z,13.13
2018-07-21T18:15:41.164Z,18.47
2018-07-21T18:18:09.490Z,15.37
2018-07-21T18:20:37.629Z,12.53
2018-07-21T18:23:05.866Z,11.33
2018-07-21T18:25:34.080Z,21.37
2018-07-21T18:28:02.292Z,10.90
2018-07-21T18:30:30.564Z,17.20
2018-07-21T18:32:58.890Z,14.13
2018-07-21T18:35:27.036Z,17.37
2018-07-21T18:37:55.315Z,10.73
2018-07-21T18:40:23.509Z,11.80
2018-07-21T18:42:51.625Z,13.33
2018-07-21T18:45:19.877Z,11.30
2018-07-21T18:47:48.033Z,13.80
2018-07-21T18:50:16.214Z,12.63
2018-07-21T18:52:44.519Z,13.03
2018-07-21T18:55:12.837Z,12.27
2018-07-21T18:57:41.162Z,10.57
2018-07-21T19:00:09.328Z,12.43
2018-07-21T19:02:37.540Z,12.83
